Toyonaka, Japan
Current Conditions -  °F | °C
As of 10:00 AM on Friday 28 Nov 2014 (Local Time) from RJOO Reporting Station
Scattered Clouds Scattered Clouds  
Wind Chill: 59°   Ceiling: Unl
Heat Index: 59°   Visibility: 6mi
Dew Point: 43°   Wind: 8mph
Humidity: 55%   Direction: 70°ENE
Pressure: 30.24"   Gusts: NA
Location:  34.78°N, 135.48°E
Report Text: RJOO 280100Z 07007KT 020V110 9999 FEW030 SCT060 15/06 Q1024
Loading
Personal Weather Stations






























Interactive Weather Map New forecast layout! Learn more

10-Day Weather Forecast

Advertisements
Track Severe Weather on mobile